RA44704 URSS-UGTB
Flight info
| Callsign | RA44704 |
|---|---|
| Flight time | N/A |
| Altitude | 33000 |
| Route | DV B949 MOBIT DCT IDLER DCT KADZE DCT DF |
| Aircraft | B752/M-SDFGHIRWY/S |
Departure
| Time | N/A |
|---|---|
| Airport | Sochi International Airport (URSS) |
Arrival
| Time | 2026-04-15 21:30 |
|---|---|
| Airport | Tbilisi International Airport (UGTB) |
| Time | Latitude | Longitude | Altitude | Speed | Heading |
|---|---|---|---|---|---|
| 2026-04-15 19:57 | 45.03375 | 39.14160 | 130 ft | 0 kts | 331° |
| 2026-04-15 20:12 | 45.03377 | 39.14158 | 129 ft | 2 kts | 331° |
| 2026-04-15 20:12 | 45.03402 | 39.14144 | 129 ft | 4 kts | 356° |
| 2026-04-15 20:12 | 45.03428 | 39.14172 | 129 ft | 6 kts | 55° |
| 2026-04-15 20:13 | 45.03453 | 39.14231 | 129 ft | 7 kts | 60° |
| 2026-04-15 20:13 | 45.03482 | 39.14305 | 129 ft | 9 kts | 61° |
| 2026-04-15 20:13 | 45.03515 | 39.14389 | 129 ft | 10 kts | 61° |
| 2026-04-15 20:13 | 45.03553 | 39.14487 | 129 ft | 11 kts | 61° |
| 2026-04-15 20:14 | 45.03595 | 39.14594 | 129 ft | 13 kts | 61° |
| 2026-04-15 20:14 | 45.03641 | 39.14711 | 129 ft | 14 kts | 61° |
| 2026-04-15 20:14 | 45.03692 | 39.14840 | 129 ft | 15 kts | 60° |
| 2026-04-15 20:14 | 45.03746 | 39.14978 | 129 ft | 16 kts | 60° |
| 2026-04-15 20:15 | 45.03803 | 39.15122 | 129 ft | 12 kts | 60° |
| 2026-04-15 20:15 | 45.03838 | 39.15229 | 129 ft | 11 kts | 87° |
| 2026-04-15 20:15 | 45.03814 | 39.15339 | 129 ft | 12 kts | 112° |
| 2026-04-15 20:15 | 45.03780 | 39.15455 | 129 ft | 13 kts | 113° |
| 2026-04-15 20:16 | 45.03744 | 39.15575 | 129 ft | 11 kts | 112° |
| 2026-04-15 20:16 | 45.03737 | 39.15691 | 129 ft | 12 kts | 88° |
| 2026-04-15 20:16 | 45.03739 | 39.15820 | 129 ft | 13 kts | 89° |
| 2026-04-15 20:16 | 45.03739 | 39.15963 | 129 ft | 15 kts | 90° |
| 2026-04-15 20:17 | 45.03734 | 39.16093 | 129 ft | 11 kts | 115° |
| 2026-04-15 20:17 | 45.03672 | 39.16174 | 129 ft | 12 kts | 142° |
| 2026-04-15 20:17 | 45.03597 | 39.16254 | 129 ft | 13 kts | 142° |
| 2026-04-15 20:17 | 45.03517 | 39.16340 | 129 ft | 15 kts | 143° |
| 2026-04-15 20:18 | 45.03430 | 39.16429 | 129 ft | 16 kts | 144° |
| 2026-04-15 20:18 | 45.03339 | 39.16533 | 129 ft | 17 kts | 142° |
| 2026-04-15 20:18 | 45.03242 | 39.16637 | 129 ft | 18 kts | 142° |
| 2026-04-15 20:18 | 45.03140 | 39.16748 | 129 ft | 19 kts | 142° |
| 2026-04-15 20:19 | 45.03031 | 39.16866 | 129 ft | 20 kts | 142° |
| 2026-04-15 20:19 | 45.02919 | 39.16986 | 129 ft | 19 kts | 142° |
| 2026-04-15 20:19 | 45.02809 | 39.17107 | 129 ft | 17 kts | 142° |
| 2026-04-15 20:19 | 45.02710 | 39.17214 | 129 ft | 18 kts | 143° |
| 2026-04-15 20:20 | 45.02641 | 39.17294 | 129 ft | 9 kts | 125° |
| 2026-04-15 20:20 | 45.02650 | 39.17377 | 129 ft | 5 kts | 53° |
| 2026-04-15 20:20 | 45.02663 | 39.17403 | 129 ft | 11 kts | 53° |
| 2026-04-15 20:20 | 45.02877 | 39.17798 | 130 ft | 104 kts | 52° |
| 2026-04-15 20:21 | 45.03527 | 39.18993 | 337 ft | 186 kts | 52° |
| 2026-04-15 20:21 | 45.04344 | 39.20493 | 1627 ft | 201 kts | 50° |
| 2026-04-15 20:21 | 45.05180 | 39.22005 | 2631 ft | 208 kts | 50° |
| 2026-04-15 20:21 | 45.06086 | 39.23671 | 3524 ft | 220 kts | 50° |
| 2026-04-15 20:22 | 45.07003 | 39.25369 | 4532 ft | 221 kts | 50° |
| 2026-04-15 20:22 | 45.07927 | 39.27084 | 5474 ft | 224 kts | 50° |
| 2026-04-15 20:22 | 45.08838 | 39.28848 | 6447 ft | 226 kts | 58° |
| 2026-04-15 20:22 | 45.09230 | 39.31005 | 7266 ft | 239 kts | 91° |
| 2026-04-15 20:23 | 45.08702 | 39.33246 | 8090 ft | 250 kts | 124° |
| 2026-04-15 20:23 | 45.07433 | 39.34912 | 8889 ft | 257 kts | 143° |
| 2026-04-15 20:23 | 45.05984 | 39.36406 | 9723 ft | 261 kts | 142° |
| 2026-04-15 20:23 | 45.04532 | 39.37960 | 10538 ft | 265 kts | 142° |
| 2026-04-15 20:24 | 45.02890 | 39.39259 | 11079 ft | 279 kts | 166° |
| 2026-04-15 20:24 | 44.99271 | 39.38157 | 12607 ft | 275 kts | 226° |
| 2026-04-15 20:24 | 44.98070 | 39.36135 | 13374 ft | 274 kts | 237° |
| 2026-04-15 20:25 | 44.96920 | 39.33981 | 14133 ft | 278 kts | 236° |
| 2026-04-15 20:25 | 44.95741 | 39.31811 | 14873 ft | 282 kts | 236° |
| 2026-04-15 20:25 | 44.94554 | 39.29622 | 15648 ft | 284 kts | 237° |
| 2026-04-15 20:25 | 44.93351 | 39.27404 | 16382 ft | 288 kts | 237° |
| 2026-04-15 20:26 | 44.92141 | 39.25171 | 17093 ft | 291 kts | 237° |
| 2026-04-15 20:26 | 44.90912 | 39.22906 | 17780 ft | 295 kts | 238° |
| 2026-04-15 20:26 | 44.89752 | 39.20517 | 18317 ft | 301 kts | 250° |
| 2026-04-15 20:26 | 44.89148 | 39.17628 | 18543 ft | 313 kts | 268° |
| 2026-04-15 20:27 | 44.88977 | 39.14508 | 18921 ft | 327 kts | 270° |
| 2026-04-15 20:27 | 44.88782 | 39.11328 | 19727 ft | 328 kts | 269° |
| 2026-04-15 20:27 | 44.88580 | 39.08099 | 20386 ft | 334 kts | 269° |
| 2026-04-15 20:27 | 44.88372 | 39.04849 | 21108 ft | 336 kts | 269° |
| 2026-04-15 20:28 | 44.88159 | 39.01565 | 21765 ft | 340 kts | 269° |
| 2026-04-15 20:28 | 44.87864 | 38.98260 | 22121 ft | 356 kts | 261° |
| 2026-04-15 20:28 | 44.86957 | 38.94844 | 22155 ft | 386 kts | 245° |
| 2026-04-15 20:28 | 44.85345 | 38.91732 | 22463 ft | 405 kts | 231° |
| 2026-04-15 20:29 | 44.83357 | 38.88890 | 23128 ft | 408 kts | 230° |
| 2026-04-15 20:29 | 44.81382 | 38.85987 | 23697 ft | 412 kts | 230° |
| 2026-04-15 20:29 | 44.79240 | 38.83333 | 24309 ft | 420 kts | 220° |
| 2026-04-15 20:29 | 44.76722 | 38.81194 | 24909 ft | 429 kts | 209° |
| 2026-04-15 20:30 | 44.73902 | 38.79686 | 25588 ft | 437 kts | 199° |
| 2026-04-15 20:30 | 44.70894 | 38.78819 | 26163 ft | 444 kts | 192° |
| 2026-04-15 20:30 | 44.67819 | 38.78141 | 26764 ft | 448 kts | 192° |
| 2026-04-15 20:30 | 44.64760 | 38.77472 | 27381 ft | 451 kts | 192° |
| 2026-04-15 20:31 | 44.61630 | 38.76799 | 27964 ft | 454 kts | 191° |
| 2026-04-15 20:31 | 44.58525 | 38.76140 | 28518 ft | 457 kts | 191° |
| 2026-04-15 20:31 | 44.55375 | 38.75474 | 29074 ft | 460 kts | 191° |
| 2026-04-15 20:31 | 44.52184 | 38.74804 | 29588 ft | 464 kts | 191° |
| 2026-04-15 20:32 | 44.48990 | 38.74134 | 30087 ft | 467 kts | 191° |
| 2026-04-15 20:32 | 44.45750 | 38.73455 | 30571 ft | 471 kts | 191° |
| 2026-04-15 20:32 | 44.42472 | 38.72772 | 31064 ft | 473 kts | 191° |
| 2026-04-15 20:32 | 44.39255 | 38.72101 | 31683 ft | 472 kts | 191° |
| 2026-04-15 20:33 | 44.36006 | 38.71425 | 32305 ft | 470 kts | 192° |
| 2026-04-15 20:33 | 44.32776 | 38.70779 | 32920 ft | 468 kts | 189° |
| 2026-04-15 20:33 | 44.29498 | 38.70621 | 33434 ft | 471 kts | 180° |
| 2026-04-15 20:33 | 44.26261 | 38.70860 | 33986 ft | 469 kts | 180° |
| 2026-04-15 20:34 | 44.22989 | 38.71108 | 34509 ft | 468 kts | 180° |
| 2026-04-15 20:34 | 44.19743 | 38.71363 | 34910 ft | 468 kts | 180° |
| 2026-04-15 20:34 | 44.16505 | 38.71626 | 35220 ft | 467 kts | 180° |
| 2026-04-15 20:35 | 44.10055 | 38.72159 | 35264 ft | 464 kts | 180° |
| 2026-04-15 20:35 | 44.03752 | 38.72683 | 35264 ft | 463 kts | 180° |
| 2026-04-15 20:36 | 43.97309 | 38.73485 | 35265 ft | 467 kts | 171° |
| 2026-04-15 20:36 | 43.91244 | 38.76630 | 35270 ft | 472 kts | 151° |
| 2026-04-15 20:37 | 43.85880 | 38.81691 | 35259 ft | 474 kts | 146° |
| 2026-04-15 20:37 | 43.80493 | 38.86996 | 35259 ft | 475 kts | 145° |
| 2026-04-15 20:38 | 43.75151 | 38.92294 | 35252 ft | 475 kts | 145° |
| 2026-04-15 20:38 | 43.69811 | 38.97595 | 35248 ft | 474 kts | 145° |
| 2026-04-15 20:39 | 43.64453 | 39.02905 | 35247 ft | 474 kts | 145° |
| 2026-04-15 20:39 | 43.59090 | 39.08212 | 35253 ft | 474 kts | 145° |
| 2026-04-15 20:40 | 43.53722 | 39.13509 | 35256 ft | 475 kts | 145° |
| 2026-04-15 20:40 | 43.48358 | 39.18794 | 35261 ft | 476 kts | 145° |
| 2026-04-15 20:41 | 43.42995 | 39.24065 | 35256 ft | 476 kts | 145° |
| 2026-04-15 20:41 | 43.37618 | 39.29338 | 35260 ft | 476 kts | 145° |
| 2026-04-15 20:42 | 43.32239 | 39.34600 | 35262 ft | 476 kts | 145° |
| 2026-04-15 20:42 | 43.26853 | 39.39859 | 35260 ft | 476 kts | 145° |
| 2026-04-15 20:43 | 43.21452 | 39.45120 | 35267 ft | 476 kts | 145° |
| 2026-04-15 20:43 | 43.16054 | 39.50367 | 35268 ft | 476 kts | 145° |
| 2026-04-15 20:44 | 43.10672 | 39.55587 | 35262 ft | 476 kts | 145° |
| 2026-04-15 20:44 | 43.05272 | 39.60812 | 35265 ft | 476 kts | 145° |
| 2026-04-15 20:45 | 42.99867 | 39.66031 | 35259 ft | 477 kts | 146° |
| 2026-04-15 20:45 | 42.94455 | 39.71244 | 35254 ft | 478 kts | 146° |
| 2026-04-15 20:46 | 42.89044 | 39.76447 | 35257 ft | 478 kts | 146° |
| 2026-04-15 20:46 | 42.83622 | 39.81648 | 35250 ft | 478 kts | 146° |
| 2026-04-15 20:47 | 42.78184 | 39.86852 | 35249 ft | 477 kts | 146° |
| 2026-04-15 20:47 | 42.72754 | 39.92038 | 35256 ft | 478 kts | 146° |
| 2026-04-15 20:48 | 42.67316 | 39.97220 | 35250 ft | 478 kts | 146° |
| 2026-04-15 20:48 | 42.61889 | 40.02381 | 35251 ft | 479 kts | 146° |
| 2026-04-15 20:49 | 42.56411 | 40.07579 | 35262 ft | 480 kts | 146° |
| 2026-04-15 20:49 | 42.51389 | 40.13491 | 35264 ft | 480 kts | 130° |
| 2026-04-15 20:50 | 42.47965 | 40.21126 | 35265 ft | 479 kts | 110° |
| 2026-04-15 20:50 | 42.46016 | 40.29734 | 35264 ft | 479 kts | 104° |
| 2026-04-15 20:51 | 42.44224 | 40.38373 | 35262 ft | 477 kts | 103° |
| 2026-04-15 20:51 | 42.42448 | 40.47026 | 35260 ft | 478 kts | 103° |
| 2026-04-15 20:52 | 42.40681 | 40.55639 | 35264 ft | 477 kts | 103° |
| 2026-04-15 20:52 | 42.38911 | 40.64239 | 35264 ft | 477 kts | 103° |
| 2026-04-15 20:53 | 42.37132 | 40.72853 | 35263 ft | 477 kts | 104° |
| 2026-04-15 20:53 | 42.35346 | 40.81460 | 35262 ft | 476 kts | 104° |
| 2026-04-15 20:54 | 42.33559 | 40.90040 | 35260 ft | 478 kts | 104° |
| 2026-04-15 20:54 | 42.31758 | 40.98653 | 35262 ft | 479 kts | 104° |
| 2026-04-15 20:55 | 42.29942 | 41.07298 | 35269 ft | 478 kts | 104° |
| 2026-04-15 20:55 | 42.28132 | 41.15881 | 35272 ft | 478 kts | 104° |
| 2026-04-15 20:56 | 42.26307 | 41.24496 | 35283 ft | 477 kts | 104° |
| 2026-04-15 20:56 | 42.24477 | 41.33104 | 35272 ft | 478 kts | 104° |
| 2026-04-15 20:57 | 42.22654 | 41.41644 | 35263 ft | 478 kts | 104° |
| 2026-04-15 20:57 | 42.20804 | 41.50274 | 35257 ft | 478 kts | 104° |
| 2026-04-15 20:58 | 42.18964 | 41.58820 | 35273 ft | 478 kts | 104° |
| 2026-04-15 20:58 | 42.17106 | 41.67423 | 35271 ft | 478 kts | 104° |
| 2026-04-15 20:59 | 42.15217 | 41.76017 | 35276 ft | 479 kts | 105° |
| 2026-04-15 20:59 | 42.13286 | 41.84612 | 35259 ft | 481 kts | 105° |
| 2026-04-15 21:00 | 42.09325 | 42.02150 | 35258 ft | 481 kts | 105° |
| 2026-04-15 21:01 | 42.07379 | 42.10717 | 35271 ft | 480 kts | 105° |
| 2026-04-15 21:01 | 42.05425 | 42.19284 | 35253 ft | 479 kts | 105° |
| 2026-04-15 21:02 | 42.03467 | 42.27837 | 35264 ft | 481 kts | 105° |
| 2026-04-15 21:02 | 42.01503 | 42.36385 | 35249 ft | 482 kts | 105° |
| 2026-04-15 21:03 | 41.99514 | 42.45001 | 35261 ft | 481 kts | 105° |
| 2026-04-15 21:03 | 41.97534 | 42.53556 | 35236 ft | 483 kts | 105° |
| 2026-04-15 21:04 | 41.95522 | 42.62207 | 34783 ft | 488 kts | 105° |
| 2026-04-15 21:04 | 41.94529 | 42.66460 | 34541 ft | 474 kts | 106° |
| 2026-04-15 21:04 | 41.93550 | 42.70653 | 33767 ft | 472 kts | 106° |
| 2026-04-15 21:04 | 41.92574 | 42.74823 | 33005 ft | 469 kts | 105° |
| 2026-04-15 21:05 | 41.91597 | 42.78994 | 32358 ft | 465 kts | 105° |
| 2026-04-15 21:05 | 41.90630 | 42.83112 | 31777 ft | 467 kts | 105° |
| 2026-04-15 21:05 | 41.89651 | 42.87316 | 31133 ft | 474 kts | 105° |
| 2026-04-15 21:05 | 41.88676 | 42.91519 | 30518 ft | 476 kts | 105° |
| 2026-04-15 21:06 | 41.87691 | 42.95752 | 29879 ft | 471 kts | 105° |
| 2026-04-15 21:06 | 41.86721 | 42.99917 | 29249 ft | 464 kts | 105° |
| 2026-04-15 21:06 | 41.85773 | 43.03975 | 28634 ft | 459 kts | 105° |
| 2026-04-15 21:06 | 41.84819 | 43.08055 | 28029 ft | 456 kts | 105° |
| 2026-04-15 21:07 | 41.83881 | 43.12059 | 27441 ft | 454 kts | 105° |
| 2026-04-15 21:07 | 41.82935 | 43.16090 | 26853 ft | 451 kts | 105° |
| 2026-04-15 21:07 | 41.82008 | 43.20035 | 26280 ft | 446 kts | 105° |
| 2026-04-15 21:07 | 41.81080 | 43.23975 | 25709 ft | 442 kts | 105° |
| 2026-04-15 21:08 | 41.80156 | 43.27889 | 25148 ft | 439 kts | 105° |
| 2026-04-15 21:08 | 41.79246 | 43.31743 | 24607 ft | 437 kts | 105° |
| 2026-04-15 21:08 | 41.78327 | 43.35623 | 24073 ft | 435 kts | 105° |
| 2026-04-15 21:08 | 41.77414 | 43.39475 | 23545 ft | 432 kts | 105° |
| 2026-04-15 21:09 | 41.76505 | 43.43299 | 23036 ft | 430 kts | 105° |
| 2026-04-15 21:09 | 41.75612 | 43.47053 | 22528 ft | 425 kts | 105° |
| 2026-04-15 21:09 | 41.74716 | 43.50809 | 22014 ft | 420 kts | 105° |
| 2026-04-15 21:09 | 41.73835 | 43.54501 | 21507 ft | 416 kts | 105° |
| 2026-04-15 21:10 | 41.72960 | 43.58163 | 20997 ft | 412 kts | 105° |
| 2026-04-15 21:10 | 41.72100 | 43.61749 | 20499 ft | 408 kts | 105° |
| 2026-04-15 21:10 | 41.71233 | 43.65367 | 19998 ft | 403 kts | 106° |
| 2026-04-15 21:10 | 41.70385 | 43.68896 | 19487 ft | 398 kts | 106° |
| 2026-04-15 21:11 | 41.69542 | 43.72400 | 18980 ft | 395 kts | 106° |
| 2026-04-15 21:11 | 41.68705 | 43.75875 | 18478 ft | 391 kts | 106° |
| 2026-04-15 21:11 | 41.67875 | 43.79310 | 17982 ft | 384 kts | 106° |
| 2026-04-15 21:11 | 41.67070 | 43.82643 | 17495 ft | 377 kts | 106° |
| 2026-04-15 21:12 | 41.66305 | 43.85804 | 17035 ft | 374 kts | 106° |
| 2026-04-15 21:12 | 41.65516 | 43.89063 | 16554 ft | 372 kts | 106° |
| 2026-04-15 21:12 | 41.64720 | 43.92338 | 16077 ft | 367 kts | 106° |
| 2026-04-15 21:12 | 41.63942 | 43.95539 | 15606 ft | 363 kts | 106° |
| 2026-04-15 21:13 | 41.63158 | 43.98760 | 15142 ft | 360 kts | 106° |
| 2026-04-15 21:13 | 41.62395 | 44.01893 | 14693 ft | 357 kts | 106° |
| 2026-04-15 21:13 | 41.61630 | 44.05026 | 14247 ft | 354 kts | 106° |
| 2026-04-15 21:13 | 41.60870 | 44.08138 | 13792 ft | 349 kts | 106° |
| 2026-04-15 21:14 | 41.60121 | 44.11196 | 13354 ft | 346 kts | 106° |
| 2026-04-15 21:14 | 41.59377 | 44.14232 | 12937 ft | 345 kts | 106° |
| 2026-04-15 21:14 | 41.58630 | 44.17283 | 12531 ft | 345 kts | 106° |
| 2026-04-15 21:14 | 41.57888 | 44.20301 | 12097 ft | 341 kts | 106° |
| 2026-04-15 21:15 | 41.57194 | 44.23296 | 11499 ft | 340 kts | 101° |
| 2026-04-15 21:15 | 41.57035 | 44.24314 | 11316 ft | 338 kts | 98° |
| 2026-04-15 21:16 | 41.55561 | 44.35649 | 10043 ft | 327 kts | 98° |
| 2026-04-15 21:16 | 41.55179 | 44.38550 | 10030 ft | 308 kts | 98° |
| 2026-04-15 21:16 | 41.54816 | 44.41299 | 10029 ft | 291 kts | 98° |
| 2026-04-15 21:16 | 41.54478 | 44.43859 | 10038 ft | 274 kts | 97° |
| 2026-04-15 21:17 | 41.54145 | 44.46407 | 10039 ft | 284 kts | 97° |
| 2026-04-15 21:17 | 41.53804 | 44.49022 | 9782 ft | 290 kts | 97° |
| 2026-04-15 21:17 | 41.53457 | 44.51655 | 9514 ft | 284 kts | 98° |
| 2026-04-15 21:17 | 41.53122 | 44.54207 | 9256 ft | 280 kts | 98° |
| 2026-04-15 21:18 | 41.52786 | 44.56759 | 9017 ft | 279 kts | 97° |
| 2026-04-15 21:18 | 41.52449 | 44.59313 | 8762 ft | 278 kts | 98° |
| 2026-04-15 21:18 | 41.52116 | 44.61830 | 8528 ft | 276 kts | 98° |
| 2026-04-15 21:18 | 41.51783 | 44.64346 | 8306 ft | 275 kts | 98° |
| 2026-04-15 21:19 | 41.51450 | 44.66855 | 8075 ft | 275 kts | 98° |
| 2026-04-15 21:19 | 41.51115 | 44.69371 | 7863 ft | 273 kts | 99° |
| 2026-04-15 21:19 | 41.50785 | 44.71826 | 7651 ft | 271 kts | 99° |
| 2026-04-15 21:19 | 41.50452 | 44.74308 | 7442 ft | 271 kts | 99° |
| 2026-04-15 21:20 | 41.50122 | 44.76762 | 7235 ft | 270 kts | 99° |
| 2026-04-15 21:20 | 41.49790 | 44.79229 | 7031 ft | 269 kts | 99° |
| 2026-04-15 21:20 | 41.49458 | 44.81693 | 6832 ft | 268 kts | 99° |
| 2026-04-15 21:20 | 41.49128 | 44.84129 | 6629 ft | 266 kts | 99° |
| 2026-04-15 21:21 | 41.48803 | 44.86528 | 6433 ft | 265 kts | 99° |
| 2026-04-15 21:21 | 41.48474 | 44.88953 | 6239 ft | 265 kts | 99° |
| 2026-04-15 21:21 | 41.48146 | 44.91369 | 6038 ft | 264 kts | 99° |
| 2026-04-15 21:21 | 41.47824 | 44.93740 | 5833 ft | 260 kts | 99° |
| 2026-04-15 21:22 | 41.47504 | 44.96082 | 5686 ft | 251 kts | 99° |
| 2026-04-15 21:22 | 41.47198 | 44.98321 | 5623 ft | 239 kts | 99° |
| 2026-04-15 21:22 | 41.46910 | 45.00431 | 5547 ft | 229 kts | 100° |
| 2026-04-15 21:22 | 41.46629 | 45.02490 | 5419 ft | 221 kts | 100° |
| 2026-04-15 21:23 | 41.46385 | 45.04489 | 5278 ft | 215 kts | 90° |
| 2026-04-15 21:23 | 41.46740 | 45.06320 | 5176 ft | 203 kts | 54° |
| 2026-04-15 21:23 | 41.47620 | 45.07745 | 5083 ft | 194 kts | 47° |
| 2026-04-15 21:23 | 41.48493 | 45.09081 | 4943 ft | 188 kts | 48° |
| 2026-04-15 21:24 | 41.49355 | 45.10364 | 4816 ft | 181 kts | 46° |
| 2026-04-15 21:24 | 41.50230 | 45.11509 | 4724 ft | 170 kts | 30° |
| 2026-04-15 21:24 | 41.51251 | 45.12006 | 4741 ft | 144 kts | 7° |
| 2026-04-15 21:24 | 41.52161 | 45.12014 | 4734 ft | 133 kts | 351° |
| 2026-04-15 21:25 | 41.53017 | 45.11658 | 4669 ft | 130 kts | 337° |
| 2026-04-15 21:25 | 41.53850 | 45.11191 | 4543 ft | 131 kts | 337° |
| 2026-04-15 21:25 | 41.54704 | 45.10709 | 4468 ft | 134 kts | 334° |
| 2026-04-15 21:25 | 41.55526 | 45.10104 | 4288 ft | 135 kts | 329° |
| 2026-04-15 21:26 | 41.56334 | 45.09448 | 4112 ft | 136 kts | 327° |
| 2026-04-15 21:26 | 41.57106 | 45.08708 | 3922 ft | 136 kts | 322° |
| 2026-04-15 21:26 | 41.57856 | 45.07958 | 3707 ft | 137 kts | 323° |
| 2026-04-15 21:26 | 41.58509 | 45.06985 | 3485 ft | 148 kts | 298° |
| 2026-04-15 21:27 | 41.58943 | 45.05839 | 3421 ft | 137 kts | 296° |
| 2026-04-15 21:27 | 41.59394 | 45.04711 | 3292 ft | 135 kts | 303° |
| 2026-04-15 21:27 | 41.59974 | 45.03724 | 3130 ft | 134 kts | 313° |
| 2026-04-15 21:27 | 41.60648 | 45.02884 | 2998 ft | 131 kts | 319° |
| 2026-04-15 21:28 | 41.61330 | 45.02090 | 2837 ft | 130 kts | 317° |
| 2026-04-15 21:28 | 41.62007 | 45.01268 | 2614 ft | 128 kts | 316° |
| 2026-04-15 21:28 | 41.62645 | 45.00457 | 2420 ft | 125 kts | 315° |
| 2026-04-15 21:28 | 41.63271 | 44.99667 | 2259 ft | 123 kts | 316° |
| 2026-04-15 21:29 | 41.63892 | 44.98897 | 2096 ft | 120 kts | 316° |
| 2026-04-15 21:29 | 41.64492 | 44.98140 | 1914 ft | 118 kts | 315° |
| 2026-04-15 21:29 | 41.65084 | 44.97391 | 1774 ft | 114 kts | 316° |
| 2026-04-15 21:29 | 41.65667 | 44.96679 | 1584 ft | 114 kts | 316° |
| 2026-04-15 21:30 | 41.66275 | 44.95919 | 1533 ft | 118 kts | 316° |
| 2026-04-15 21:30 | 41.66754 | 44.95303 | 1541 ft | 71 kts | 315° |
| 2026-04-15 21:30 | 41.67020 | 44.94979 | 1544 ft | 34 kts | 314° |
| 2026-04-15 21:30 | 41.67155 | 44.94804 | 1551 ft | 24 kts | 317° |
| 2026-04-15 21:31 | 41.67424 | 44.94462 | 1573 ft | 20 kts | 318° |
| 2026-04-15 21:31 | 41.67509 | 44.94416 | 1575 ft | 10 kts | 20° |
| 2026-04-15 21:32 | 41.67587 | 44.94635 | 1577 ft | 14 kts | 73° |
| 2026-04-15 21:32 | 41.67618 | 44.94777 | 1584 ft | 17 kts | 73° |
| 2026-04-15 21:32 | 41.67650 | 44.94921 | 1590 ft | 16 kts | 72° |
| 2026-04-15 21:32 | 41.67663 | 44.95032 | 1593 ft | 11 kts | 113° |
| 2026-04-15 21:33 | 41.67600 | 44.95132 | 1590 ft | 17 kts | 134° |
| 2026-04-15 21:33 | 41.67515 | 44.95252 | 1587 ft | 17 kts | 134° |
| 2026-04-15 21:33 | 41.67431 | 44.95382 | 1579 ft | 21 kts | 129° |
| 2026-04-15 21:33 | 41.67330 | 44.95530 | 1573 ft | 21 kts | 133° |
| 2026-04-15 21:34 | 41.67222 | 44.95684 | 1571 ft | 23 kts | 133° |
| 2026-04-15 21:34 | 41.67124 | 44.95818 | 1575 ft | 17 kts | 134° |
| 2026-04-15 21:34 | 41.67067 | 44.95916 | 1577 ft | 11 kts | 120° |
| 2026-04-15 21:34 | 41.67025 | 44.95988 | 1575 ft | 0 kts | 135° |
| 2026-04-15 21:35 | 41.67019 | 44.95996 | 1575 ft | 4 kts | 135° |
| 2026-04-15 21:35 | 41.66990 | 44.96037 | 1573 ft | 4 kts | 124° |
| 2026-04-15 21:35 | 41.66993 | 44.96072 | 1572 ft | 5 kts | 60° |
| 2026-04-15 21:35 | 41.67017 | 44.96109 | 1573 ft | 4 kts | 44° |
| 2026-04-15 21:36 | 41.67027 | 44.96122 | 1574 ft | 0 kts | 43° |